HVN165 VVNB-VVDN
Flight info
| Callsign | HVN165 |
|---|---|
| Flight time | 1h 4m |
| Altitude | 32000 |
| Route | NAH Q1 CAHEO CAHEO1D |
| Aircraft | A320/M-SDE3FGHIRWY/LB1 |
Departure
| Time | 2026-04-23 04:32 |
|---|---|
| Airport | Noi Bai International Airport (VVNB) |
Arrival
| Time | 2026-04-23 05:36 |
|---|---|
| Airport | Da Nang International Airport (VVDN) |
| Time | Latitude | Longitude | Altitude | Speed | Heading |
|---|---|---|---|---|---|
| 2026-04-23 04:13 | 21.22018 | 105.78638 | 49 ft | 0 kts | 109° |
| 2026-04-23 04:25 | 21.22020 | 105.78629 | 49 ft | 2 kts | 109° |
| 2026-04-23 04:25 | 21.22024 | 105.78617 | 49 ft | 0 kts | 109° |
| 2026-04-23 04:26 | 21.22027 | 105.78603 | 49 ft | 2 kts | 82° |
| 2026-04-23 04:26 | 21.22022 | 105.78588 | 49 ft | 2 kts | 52° |
| 2026-04-23 04:26 | 21.22010 | 105.78578 | 49 ft | 1 kts | 22° |
| 2026-04-23 04:26 | 21.22004 | 105.78577 | 49 ft | 1 kts | 14° |
| 2026-04-23 04:27 | 21.22002 | 105.78576 | 49 ft | 0 kts | 15° |
| 2026-04-23 04:28 | 21.22009 | 105.78578 | 49 ft | 2 kts | 18° |
| 2026-04-23 04:28 | 21.22034 | 105.78587 | 49 ft | 5 kts | 18° |
| 2026-04-23 04:28 | 21.22079 | 105.78602 | 50 ft | 8 kts | 16° |
| 2026-04-23 04:29 | 21.22143 | 105.78622 | 50 ft | 10 kts | 17° |
| 2026-04-23 04:29 | 21.22208 | 105.78612 | 50 ft | 10 kts | 300° |
| 2026-04-23 04:29 | 21.22256 | 105.78576 | 51 ft | 10 kts | 9° |
| 2026-04-23 04:29 | 21.22332 | 105.78599 | 51 ft | 12 kts | 18° |
| 2026-04-23 04:30 | 21.22422 | 105.78631 | 52 ft | 14 kts | 19° |
| 2026-04-23 04:30 | 21.22452 | 105.78698 | 51 ft | 9 kts | 120° |
| 2026-04-23 04:30 | 21.22441 | 105.78734 | 51 ft | 0 kts | 106° |
| 2026-04-23 04:30 | 21.22441 | 105.78735 | 51 ft | 0 kts | 106° |
| 2026-04-23 04:31 | 21.22424 | 105.78794 | 50 ft | 31 kts | 107° |
| 2026-04-23 04:31 | 21.22287 | 105.79270 | 52 ft | 100 kts | 107° |
| 2026-04-23 04:31 | 21.22018 | 105.80204 | 58 ft | 156 kts | 105° |
| 2026-04-23 04:31 | 21.21693 | 105.81377 | 493 ft | 167 kts | 105° |
| 2026-04-23 04:32 | 21.21336 | 105.82576 | 1146 ft | 170 kts | 106° |
| 2026-04-23 04:32 | 21.20963 | 105.83771 | 1829 ft | 170 kts | 107° |
| 2026-04-23 04:32 | 21.20579 | 105.84997 | 2231 ft | 182 kts | 107° |
| 2026-04-23 04:32 | 21.20151 | 105.86362 | 2579 ft | 199 kts | 108° |
| 2026-04-23 04:33 | 21.19697 | 105.87810 | 2931 ft | 215 kts | 108° |
| 2026-04-23 04:33 | 21.19193 | 105.89414 | 3227 ft | 238 kts | 108° |
| 2026-04-23 04:33 | 21.18644 | 105.91162 | 3645 ft | 256 kts | 108° |
| 2026-04-23 04:33 | 21.18062 | 105.93017 | 4270 ft | 265 kts | 108° |
| 2026-04-23 04:34 | 21.17472 | 105.94891 | 5076 ft | 268 kts | 108° |
| 2026-04-23 04:34 | 21.16601 | 105.96668 | 5815 ft | 275 kts | 130° |
| 2026-04-23 04:34 | 21.15057 | 105.97878 | 6568 ft | 282 kts | 158° |
| 2026-04-23 04:34 | 21.13173 | 105.98390 | 7417 ft | 283 kts | 171° |
| 2026-04-23 04:35 | 21.11213 | 105.98642 | 8252 ft | 285 kts | 173° |
| 2026-04-23 04:35 | 21.09239 | 105.98846 | 9104 ft | 286 kts | 173° |
| 2026-04-23 04:35 | 21.07258 | 105.99069 | 9998 ft | 285 kts | 172° |
| 2026-04-23 04:35 | 21.05286 | 105.99389 | 10672 ft | 292 kts | 172° |
| 2026-04-23 04:36 | 21.03200 | 105.99757 | 11019 ft | 310 kts | 172° |
| 2026-04-23 04:36 | 21.01020 | 106.00172 | 11373 ft | 326 kts | 173° |
| 2026-04-23 04:36 | 20.98746 | 106.00603 | 11905 ft | 335 kts | 173° |
| 2026-04-23 04:36 | 20.96401 | 106.01023 | 12457 ft | 343 kts | 174° |
| 2026-04-23 04:37 | 20.93997 | 106.01448 | 13123 ft | 347 kts | 174° |
| 2026-04-23 04:37 | 20.91593 | 106.01897 | 13820 ft | 350 kts | 173° |
| 2026-04-23 04:37 | 20.89192 | 106.02364 | 14483 ft | 352 kts | 173° |
| 2026-04-23 04:37 | 20.86734 | 106.02844 | 15136 ft | 355 kts | 173° |
| 2026-04-23 04:38 | 20.84257 | 106.03320 | 15777 ft | 357 kts | 174° |
| 2026-04-23 04:38 | 20.81776 | 106.03766 | 16397 ft | 360 kts | 174° |
| 2026-04-23 04:38 | 20.79273 | 106.04207 | 17001 ft | 362 kts | 174° |
| 2026-04-23 04:38 | 20.76769 | 106.04646 | 17585 ft | 365 kts | 174° |
| 2026-04-23 04:39 | 20.74233 | 106.05110 | 18158 ft | 367 kts | 173° |
| 2026-04-23 04:39 | 20.71685 | 106.05602 | 18711 ft | 370 kts | 173° |
| 2026-04-23 04:39 | 20.69130 | 106.06100 | 19228 ft | 373 kts | 173° |
| 2026-04-23 04:39 | 20.66565 | 106.06600 | 19735 ft | 376 kts | 174° |
| 2026-04-23 04:40 | 20.63994 | 106.07102 | 20230 ft | 378 kts | 174° |
| 2026-04-23 04:40 | 20.61346 | 106.07610 | 20721 ft | 381 kts | 174° |
| 2026-04-23 04:40 | 20.58695 | 106.08085 | 21208 ft | 383 kts | 175° |
| 2026-04-23 04:40 | 20.56013 | 106.08557 | 21682 ft | 386 kts | 175° |
| 2026-04-23 04:41 | 20.53367 | 106.09021 | 22128 ft | 389 kts | 175° |
| 2026-04-23 04:41 | 20.50663 | 106.09524 | 22578 ft | 392 kts | 174° |
| 2026-04-23 04:41 | 20.47946 | 106.10049 | 23019 ft | 395 kts | 174° |
| 2026-04-23 04:41 | 20.45221 | 106.10577 | 23441 ft | 397 kts | 174° |
| 2026-04-23 04:42 | 20.42507 | 106.11171 | 23854 ft | 401 kts | 171° |
| 2026-04-23 04:42 | 20.39781 | 106.11926 | 24268 ft | 405 kts | 168° |
| 2026-04-23 04:42 | 20.37085 | 106.12801 | 24662 ft | 409 kts | 167° |
| 2026-04-23 04:42 | 20.34359 | 106.13727 | 25043 ft | 411 kts | 167° |
| 2026-04-23 04:43 | 20.31601 | 106.14679 | 25417 ft | 414 kts | 166° |
| 2026-04-23 04:43 | 20.28849 | 106.15646 | 25777 ft | 417 kts | 166° |
| 2026-04-23 04:43 | 20.26074 | 106.16646 | 26126 ft | 420 kts | 165° |
| 2026-04-23 04:43 | 20.23354 | 106.17808 | 26455 ft | 426 kts | 159° |
| 2026-04-23 04:44 | 20.20685 | 106.19272 | 26790 ft | 431 kts | 155° |
| 2026-04-23 04:44 | 20.18090 | 106.20896 | 27118 ft | 434 kts | 153° |
| 2026-04-23 04:44 | 20.15518 | 106.22553 | 27434 ft | 437 kts | 153° |
| 2026-04-23 04:44 | 20.12900 | 106.24240 | 27755 ft | 438 kts | 154° |
| 2026-04-23 04:45 | 20.10208 | 106.25816 | 28084 ft | 438 kts | 157° |
| 2026-04-23 04:45 | 20.07502 | 106.27235 | 28382 ft | 439 kts | 159° |
| 2026-04-23 04:45 | 20.04718 | 106.28648 | 28669 ft | 441 kts | 159° |
| 2026-04-23 04:45 | 20.01938 | 106.30048 | 28948 ft | 443 kts | 159° |
| 2026-04-23 04:46 | 19.99101 | 106.31477 | 29231 ft | 446 kts | 159° |
| 2026-04-23 04:46 | 19.96282 | 106.32895 | 29498 ft | 448 kts | 159° |
| 2026-04-23 04:46 | 19.93422 | 106.34333 | 29768 ft | 450 kts | 159° |
| 2026-04-23 04:46 | 19.90573 | 106.35766 | 30015 ft | 452 kts | 159° |
| 2026-04-23 04:47 | 19.87707 | 106.37207 | 30255 ft | 454 kts | 159° |
| 2026-04-23 04:47 | 19.84801 | 106.38668 | 30492 ft | 456 kts | 159° |
| 2026-04-23 04:47 | 19.81902 | 106.40125 | 30720 ft | 458 kts | 159° |
| 2026-04-23 04:47 | 19.78982 | 106.41591 | 30942 ft | 461 kts | 159° |
| 2026-04-23 04:48 | 19.76039 | 106.43070 | 31152 ft | 463 kts | 159° |
| 2026-04-23 04:48 | 19.73073 | 106.44559 | 31355 ft | 465 kts | 158° |
| 2026-04-23 04:48 | 19.70142 | 106.46030 | 31549 ft | 467 kts | 158° |
| 2026-04-23 04:48 | 19.67140 | 106.47537 | 31743 ft | 469 kts | 158° |
| 2026-04-23 04:49 | 19.64170 | 106.49027 | 31882 ft | 471 kts | 158° |
| 2026-04-23 04:49 | 19.61164 | 106.50536 | 31887 ft | 471 kts | 158° |
| 2026-04-23 04:49 | 19.55204 | 106.53526 | 31891 ft | 470 kts | 158° |
| 2026-04-23 04:50 | 19.49219 | 106.56457 | 31892 ft | 470 kts | 159° |
| 2026-04-23 04:50 | 19.43217 | 106.59340 | 31892 ft | 470 kts | 159° |
| 2026-04-23 04:51 | 19.37219 | 106.62321 | 31892 ft | 470 kts | 158° |
| 2026-04-23 04:51 | 19.31264 | 106.65299 | 31892 ft | 469 kts | 158° |
| 2026-04-23 04:52 | 19.25332 | 106.68266 | 31892 ft | 469 kts | 158° |
| 2026-04-23 04:52 | 19.19368 | 106.71247 | 31892 ft | 469 kts | 158° |
| 2026-04-23 04:53 | 19.13423 | 106.74216 | 31890 ft | 468 kts | 158° |
| 2026-04-23 04:53 | 19.07488 | 106.77181 | 31884 ft | 468 kts | 158° |
| 2026-04-23 04:54 | 19.01534 | 106.80152 | 31876 ft | 468 kts | 158° |
| 2026-04-23 04:54 | 18.95569 | 106.83128 | 31869 ft | 468 kts | 158° |
| 2026-04-23 04:55 | 18.89645 | 106.86082 | 31866 ft | 467 kts | 158° |
| 2026-04-23 04:55 | 18.83975 | 106.88908 | 31865 ft | 467 kts | 158° |
| 2026-04-23 04:56 | 18.78081 | 106.91844 | 31864 ft | 467 kts | 158° |
| 2026-04-23 04:56 | 18.72171 | 106.94787 | 31864 ft | 466 kts | 158° |
| 2026-04-23 04:57 | 18.66278 | 106.97720 | 31864 ft | 466 kts | 158° |
| 2026-04-23 04:57 | 18.60388 | 107.00650 | 31864 ft | 466 kts | 157° |
| 2026-04-23 04:58 | 18.54492 | 107.03582 | 31864 ft | 466 kts | 157° |
| 2026-04-23 04:58 | 18.48598 | 107.06511 | 31864 ft | 465 kts | 157° |
| 2026-04-23 04:59 | 18.42690 | 107.09414 | 31864 ft | 465 kts | 159° |
| 2026-04-23 04:59 | 18.36750 | 107.12129 | 31864 ft | 464 kts | 159° |
| 2026-04-23 05:00 | 18.30766 | 107.14812 | 31864 ft | 464 kts | 160° |
| 2026-04-23 05:00 | 18.24790 | 107.17397 | 31864 ft | 463 kts | 160° |
| 2026-04-23 05:01 | 18.18792 | 107.19878 | 31864 ft | 462 kts | 162° |
| 2026-04-23 05:01 | 18.12711 | 107.22136 | 31864 ft | 462 kts | 163° |
| 2026-04-23 05:02 | 18.06625 | 107.24367 | 31864 ft | 461 kts | 163° |
| 2026-04-23 05:02 | 18.00516 | 107.26605 | 31862 ft | 462 kts | 163° |
| 2026-04-23 05:03 | 17.94457 | 107.28857 | 31856 ft | 461 kts | 160° |
| 2026-04-23 05:03 | 17.88531 | 107.31429 | 31848 ft | 461 kts | 158° |
| 2026-04-23 05:04 | 17.82390 | 107.34312 | 31841 ft | 461 kts | 157° |
| 2026-04-23 05:04 | 17.76551 | 107.37161 | 31839 ft | 461 kts | 156° |
| 2026-04-23 05:05 | 17.70720 | 107.40037 | 31838 ft | 461 kts | 156° |
| 2026-04-23 05:05 | 17.64889 | 107.42869 | 31837 ft | 460 kts | 157° |
| 2026-04-23 05:06 | 17.61980 | 107.44246 | 31690 ft | 456 kts | 157° |
| 2026-04-23 05:06 | 17.59139 | 107.45587 | 31185 ft | 452 kts | 157° |
| 2026-04-23 05:06 | 17.56263 | 107.46944 | 30548 ft | 451 kts | 157° |
| 2026-04-23 05:06 | 17.53417 | 107.48286 | 29971 ft | 448 kts | 157° |
| 2026-04-23 05:07 | 17.50631 | 107.49600 | 29439 ft | 444 kts | 157° |
| 2026-04-23 05:07 | 17.47824 | 107.50923 | 28909 ft | 440 kts | 157° |
| 2026-04-23 05:07 | 17.45068 | 107.52223 | 28378 ft | 436 kts | 156° |
| 2026-04-23 05:07 | 17.42337 | 107.53547 | 27841 ft | 432 kts | 156° |
| 2026-04-23 05:08 | 17.39636 | 107.54873 | 27303 ft | 428 kts | 156° |
| 2026-04-23 05:08 | 17.36954 | 107.56193 | 26762 ft | 424 kts | 156° |
| 2026-04-23 05:08 | 17.34296 | 107.57472 | 26226 ft | 420 kts | 157° |
| 2026-04-23 05:08 | 17.31665 | 107.58716 | 25691 ft | 417 kts | 157° |
| 2026-04-23 05:09 | 17.29049 | 107.59948 | 25154 ft | 413 kts | 157° |
| 2026-04-23 05:09 | 17.26441 | 107.61176 | 24619 ft | 410 kts | 157° |
| 2026-04-23 05:09 | 17.23870 | 107.62397 | 24096 ft | 406 kts | 156° |
| 2026-04-23 05:09 | 17.21328 | 107.63638 | 23574 ft | 403 kts | 156° |
| 2026-04-23 05:10 | 17.18812 | 107.64874 | 23042 ft | 400 kts | 156° |
| 2026-04-23 05:10 | 17.16309 | 107.66105 | 22505 ft | 397 kts | 156° |
| 2026-04-23 05:10 | 17.13849 | 107.67314 | 21977 ft | 394 kts | 156° |
| 2026-04-23 05:10 | 17.11365 | 107.68535 | 21445 ft | 391 kts | 156° |
| 2026-04-23 05:11 | 17.08957 | 107.69712 | 20929 ft | 388 kts | 157° |
| 2026-04-23 05:11 | 17.06501 | 107.70877 | 20409 ft | 385 kts | 157° |
| 2026-04-23 05:11 | 17.04052 | 107.72029 | 19891 ft | 383 kts | 158° |
| 2026-04-23 05:11 | 17.01654 | 107.73172 | 19383 ft | 380 kts | 157° |
| 2026-04-23 05:12 | 16.99263 | 107.74339 | 18880 ft | 378 kts | 156° |
| 2026-04-23 05:12 | 16.96904 | 107.75497 | 18384 ft | 375 kts | 156° |
| 2026-04-23 05:12 | 16.94565 | 107.76646 | 17892 ft | 373 kts | 156° |
| 2026-04-23 05:12 | 16.92216 | 107.77799 | 17405 ft | 370 kts | 156° |
| 2026-04-23 05:13 | 16.89903 | 107.78923 | 16932 ft | 368 kts | 157° |
| 2026-04-23 05:13 | 16.87534 | 107.80043 | 16452 ft | 365 kts | 157° |
| 2026-04-23 05:13 | 16.85253 | 107.81113 | 15988 ft | 363 kts | 157° |
| 2026-04-23 05:14 | 16.80678 | 107.83270 | 15067 ft | 358 kts | 155° |
| 2026-04-23 05:14 | 16.78430 | 107.84364 | 14615 ft | 355 kts | 155° |
| 2026-04-23 05:14 | 16.76227 | 107.85444 | 14165 ft | 353 kts | 155° |
| 2026-04-23 05:14 | 16.74020 | 107.86526 | 13706 ft | 350 kts | 155° |
| 2026-04-23 05:15 | 16.71817 | 107.87605 | 13235 ft | 348 kts | 155° |
| 2026-04-23 05:15 | 16.69618 | 107.88683 | 12744 ft | 347 kts | 155° |
| 2026-04-23 05:15 | 16.67463 | 107.89739 | 12256 ft | 345 kts | 154° |
| 2026-04-23 05:15 | 16.65290 | 107.90803 | 11779 ft | 343 kts | 154° |
| 2026-04-23 05:16 | 16.63146 | 107.91854 | 11343 ft | 340 kts | 154° |
| 2026-04-23 05:16 | 16.61012 | 107.92899 | 10897 ft | 336 kts | 154° |
| 2026-04-23 05:16 | 16.58929 | 107.93919 | 10425 ft | 334 kts | 155° |
| 2026-04-23 05:16 | 16.56848 | 107.94935 | 10169 ft | 324 kts | 155° |
| 2026-04-23 05:17 | 16.54825 | 107.95895 | 9976 ft | 314 kts | 156° |
| 2026-04-23 05:17 | 16.52845 | 107.96821 | 9788 ft | 304 kts | 156° |
| 2026-04-23 05:17 | 16.50943 | 107.97722 | 9588 ft | 295 kts | 155° |
| 2026-04-23 05:17 | 16.49100 | 107.98616 | 9250 ft | 293 kts | 155° |
| 2026-04-23 05:18 | 16.47262 | 107.99513 | 9006 ft | 290 kts | 155° |
| 2026-04-23 05:18 | 16.45442 | 108.00402 | 9001 ft | 291 kts | 155° |
| 2026-04-23 05:18 | 16.43606 | 108.01299 | 9000 ft | 292 kts | 155° |
| 2026-04-23 05:18 | 16.41762 | 108.02200 | 8996 ft | 288 kts | 155° |
| 2026-04-23 05:19 | 16.39980 | 108.03069 | 8991 ft | 272 kts | 155° |
| 2026-04-23 05:19 | 16.38309 | 108.03873 | 8988 ft | 258 kts | 156° |
| 2026-04-23 05:19 | 16.36712 | 108.04622 | 8992 ft | 251 kts | 156° |
| 2026-04-23 05:19 | 16.35099 | 108.05380 | 8996 ft | 251 kts | 155° |
| 2026-04-23 05:20 | 16.33531 | 108.06139 | 8997 ft | 250 kts | 155° |
| 2026-04-23 05:20 | 16.31950 | 108.06908 | 8998 ft | 250 kts | 155° |
| 2026-04-23 05:20 | 16.30366 | 108.07681 | 8998 ft | 250 kts | 155° |
| 2026-04-23 05:20 | 16.28780 | 108.08454 | 8998 ft | 250 kts | 155° |
| 2026-04-23 05:21 | 16.27197 | 108.09225 | 8998 ft | 250 kts | 155° |
| 2026-04-23 05:21 | 16.25531 | 108.09730 | 8983 ft | 250 kts | 180° |
| 2026-04-23 05:21 | 16.23871 | 108.09351 | 8992 ft | 249 kts | 210° |
| 2026-04-23 05:21 | 16.22596 | 108.08152 | 8999 ft | 249 kts | 237° |
| 2026-04-23 05:22 | 16.21661 | 108.06638 | 9004 ft | 249 kts | 235° |
| 2026-04-23 05:22 | 16.20592 | 108.05204 | 9001 ft | 249 kts | 228° |
| 2026-04-23 05:22 | 16.19378 | 108.03901 | 9000 ft | 250 kts | 223° |
| 2026-04-23 05:22 | 16.18070 | 108.02740 | 8999 ft | 250 kts | 218° |
| 2026-04-23 05:23 | 16.16656 | 108.01662 | 8998 ft | 250 kts | 213° |
| 2026-04-23 05:23 | 16.15145 | 108.00736 | 8999 ft | 251 kts | 207° |
| 2026-04-23 05:23 | 16.13554 | 107.99972 | 8999 ft | 251 kts | 202° |
| 2026-04-23 05:23 | 16.11937 | 107.99346 | 8999 ft | 251 kts | 198° |
| 2026-04-23 05:24 | 16.10242 | 107.98839 | 8998 ft | 251 kts | 193° |
| 2026-04-23 05:24 | 16.08532 | 107.98476 | 8999 ft | 251 kts | 189° |
| 2026-04-23 05:24 | 16.06797 | 107.98254 | 8999 ft | 251 kts | 184° |
| 2026-04-23 05:24 | 16.05073 | 107.98185 | 8981 ft | 245 kts | 179° |
| 2026-04-23 05:25 | 16.03395 | 107.98266 | 8822 ft | 237 kts | 174° |
| 2026-04-23 05:25 | 16.01783 | 107.98489 | 8649 ft | 230 kts | 170° |
| 2026-04-23 05:25 | 16.00215 | 107.98833 | 8385 ft | 227 kts | 166° |
| 2026-04-23 05:25 | 15.98695 | 107.99274 | 8091 ft | 227 kts | 161° |
| 2026-04-23 05:26 | 15.97213 | 107.99847 | 7800 ft | 226 kts | 157° |
| 2026-04-23 05:26 | 15.95777 | 108.00532 | 7510 ft | 225 kts | 153° |
| 2026-04-23 05:26 | 15.94424 | 108.01317 | 7225 ft | 224 kts | 148° |
| 2026-04-23 05:26 | 15.93130 | 108.02206 | 6940 ft | 223 kts | 144° |
| 2026-04-23 05:27 | 15.91893 | 108.03177 | 6656 ft | 222 kts | 140° |
| 2026-04-23 05:27 | 15.90753 | 108.04246 | 6505 ft | 220 kts | 135° |
| 2026-04-23 05:27 | 15.89704 | 108.05388 | 6596 ft | 207 kts | 132° |
| 2026-04-23 05:27 | 15.88798 | 108.06512 | 6452 ft | 195 kts | 128° |
| 2026-04-23 05:28 | 15.88040 | 108.07655 | 6267 ft | 187 kts | 122° |
| 2026-04-23 05:28 | 15.87405 | 108.08803 | 6081 ft | 178 kts | 118° |
| 2026-04-23 05:28 | 15.86842 | 108.09913 | 5886 ft | 170 kts | 117° |
| 2026-04-23 05:28 | 15.86346 | 108.11006 | 5618 ft | 167 kts | 113° |
| 2026-04-23 05:29 | 15.85921 | 108.12130 | 5316 ft | 166 kts | 109° |
| 2026-04-23 05:29 | 15.85565 | 108.13268 | 5025 ft | 165 kts | 106° |
| 2026-04-23 05:29 | 15.85271 | 108.14415 | 4731 ft | 164 kts | 103° |
| 2026-04-23 05:29 | 15.85029 | 108.15570 | 4434 ft | 163 kts | 101° |
| 2026-04-23 05:30 | 15.84842 | 108.16721 | 4140 ft | 163 kts | 98° |
| 2026-04-23 05:30 | 15.84705 | 108.17896 | 3845 ft | 162 kts | 96° |
| 2026-04-23 05:30 | 15.84632 | 108.19057 | 3556 ft | 161 kts | 92° |
| 2026-04-23 05:30 | 15.84625 | 108.20215 | 3266 ft | 160 kts | 85° |
| 2026-04-23 05:31 | 15.85050 | 108.21262 | 2931 ft | 163 kts | 42° |
| 2026-04-23 05:31 | 15.86023 | 108.21819 | 2636 ft | 162 kts | 15° |
| 2026-04-23 05:31 | 15.87148 | 108.21989 | 2345 ft | 161 kts | 3° |
| 2026-04-23 05:31 | 15.88259 | 108.22014 | 2064 ft | 160 kts | 0° |
| 2026-04-23 05:32 | 15.89366 | 108.21963 | 1904 ft | 158 kts | 355° |
| 2026-04-23 05:32 | 15.90452 | 108.21824 | 1915 ft | 159 kts | 353° |
| 2026-04-23 05:32 | 15.91560 | 108.21662 | 1923 ft | 160 kts | 353° |
| 2026-04-23 05:32 | 15.92663 | 108.21497 | 1908 ft | 160 kts | 352° |
| 2026-04-23 05:33 | 15.93759 | 108.21333 | 1854 ft | 160 kts | 352° |
| 2026-04-23 05:33 | 15.94820 | 108.21173 | 1635 ft | 148 kts | 353° |
| 2026-04-23 05:33 | 15.95831 | 108.21021 | 1420 ft | 147 kts | 354° |
| 2026-04-23 05:33 | 15.96860 | 108.20868 | 1228 ft | 148 kts | 354° |
| 2026-04-23 05:34 | 15.97875 | 108.20727 | 1031 ft | 148 kts | 356° |
| 2026-04-23 05:34 | 15.98900 | 108.20598 | 833 ft | 148 kts | 355° |
| 2026-04-23 05:34 | 15.99919 | 108.20459 | 638 ft | 147 kts | 355° |
| 2026-04-23 05:34 | 16.00940 | 108.20316 | 462 ft | 147 kts | 355° |
| 2026-04-23 05:35 | 16.01962 | 108.20176 | 275 ft | 146 kts | 355° |
| 2026-04-23 05:35 | 16.02982 | 108.20034 | 85 ft | 146 kts | 355° |
| 2026-04-23 05:35 | 16.03921 | 108.19906 | 40 ft | 117 kts | 353° |
| 2026-04-23 05:35 | 16.04559 | 108.19813 | 38 ft | 67 kts | 352° |
| 2026-04-23 05:36 | 16.04860 | 108.19786 | 37 ft | 23 kts | 40° |
| 2026-04-23 05:36 | 16.04896 | 108.19940 | 33 ft | 21 kts | 83° |
| 2026-04-23 05:36 | 16.04916 | 108.20068 | 32 ft | 16 kts | 70° |
| 2026-04-23 05:36 | 16.05003 | 108.20090 | 32 ft | 14 kts | 352° |
| 2026-04-23 05:37 | 16.05107 | 108.20074 | 31 ft | 15 kts | 352° |
| 2026-04-23 05:37 | 16.05210 | 108.20059 | 30 ft | 11 kts | 352° |
| 2026-04-23 05:37 | 16.05243 | 108.20068 | 29 ft | 5 kts | 60° |
| 2026-04-23 05:37 | 16.05250 | 108.20105 | 30 ft | 4 kts | 82° |
| 2026-04-23 05:38 | 16.05255 | 108.20139 | 30 ft | 4 kts | 82° |
| 2026-04-23 05:38 | 16.05258 | 108.20165 | 30 ft | 3 kts | 82° |
| 2026-04-23 05:38 | 16.05261 | 108.20188 | 30 ft | 0 kts | 82° |